Time,TemperatureF,DewpointF,PressureIn,WindDirection,WindDirectionDegrees,WindSpeedMPH,WindSpeedGustMPH,Humidity,HourlyPrecipIn,Conditions,Clouds,dailyrainin,SoftwareType,DateUTC
2013-01-23 00:03:00,2.0,-19.0,29.90,West,274,0.0,6.0,35,0.00,,,0.00,,2013-01-23 05:03:00,
2013-01-23 00:12:00,2.0,-19.0,29.90,West,274,0.0,6.0,35,0.00,,,0.00,,2013-01-23 05:12:00,
2013-01-23 00:22:00,2.0,-19.0,29.90,West,274,0.0,6.0,35,0.00,,,0.00,,2013-01-23 05:22:00,
2013-01-23 00:33:00,1.0,-19.0,29.89,WNW,282,0.0,4.0,38,0.00,,,0.00,,2013-01-23 05:33:00,
2013-01-23 00:43:00,1.0,-19.0,29.89,WNW,282,0.0,4.0,38,0.00,,,0.00,,2013-01-23 05:43:00,
2013-01-23 00:53:00,1.0,-18.0,29.89,WSW,239,3.0,7.0,39,0.00,,,0.00,,2013-01-23 05:53:00,
2013-01-23 01:03:00,1.0,-18.0,29.89,WSW,239,3.0,7.0,39,0.00,,,0.00,,2013-01-23 06:03:00,
2013-01-23 01:13:00,1.0,-18.0,29.89,WSW,239,3.0,7.0,39,0.00,,,0.00,,2013-01-23 06:13:00,
2013-01-23 01:22:00,1.0,-18.0,29.89,WSW,239,3.0,7.0,39,0.00,,,0.00,,2013-01-23 06:22:00,
2013-01-23 01:32:00,0.0,-18.0,29.90,West,274,3.0,5.0,42,0.00,,,0.00,,2013-01-23 06:32:00,
2013-01-23 01:43:00,0.0,-18.0,29.90,West,274,3.0,5.0,42,0.00,,,0.00,,2013-01-23 06:43:00,
2013-01-23 01:53:00,0.0,-18.0,29.90,West,274,3.0,5.0,42,0.00,,,0.00,,2013-01-23 06:53:00,
2013-01-23 02:02:00,0.0,-17.0,29.91,NW,325,2.0,3.0,43,0.00,,,0.00,,2013-01-23 07:02:00,
2013-01-23 02:12:00,0.0,-17.0,29.91,NW,325,2.0,3.0,43,0.00,,,0.00,,2013-01-23 07:12:00,
2013-01-23 02:23:00,0.0,-17.0,29.91,West,277,0.0,5.0,44,0.00,,,0.00,,2013-01-23 07:23:00,
2013-01-23 02:33:00,0.0,-17.0,29.91,West,277,0.0,5.0,44,0.00,,,0.00,,2013-01-23 07:33:00,
2013-01-23 02:43:00,0.0,-17.0,29.91,West,277,0.0,5.0,44,0.00,,,0.00,,2013-01-23 07:43:00,
2013-01-23 02:53:00,0.0,-16.0,29.91,West,278,5.0,8.0,45,0.00,,,0.00,,2013-01-23 07:53:00,
2013-01-23 03:02:00,0.0,-16.0,29.91,West,270,2.0,7.0,45,0.00,,,0.00,,2013-01-23 08:02:00,
2013-01-23 03:13:00,0.0,-16.0,29.91,West,270,2.0,7.0,45,0.00,,,0.00,,2013-01-23 08:13:00,
2013-01-23 03:23:00,0.0,-16.0,29.91,West,270,2.0,7.0,45,0.00,,,0.00,,2013-01-23 08:23:00,
2013-01-23 03:33:00,-1.0,-15.0,29.91,West,261,2.0,6.0,50,0.00,,,0.00,,2013-01-23 08:33:00,
2013-01-23 03:43:00,-1.0,-15.0,29.91,West,261,2.0,6.0,50,0.00,,,0.00,,2013-01-23 08:43:00,
2013-01-23 03:53:00,-1.0,-16.0,29.91,West,272,0.0,6.0,49,0.00,,,0.00,,2013-01-23 08:53:00,
2013-01-23 04:03:00,-2.0,-16.0,29.91,WSW,258,1.0,6.0,49,0.00,,,0.00,,2013-01-23 09:03:00,
2013-01-23 04:12:00,-2.0,-16.0,29.91,WSW,258,1.0,6.0,49,0.00,,,0.00,,2013-01-23 09:12:00,
2013-01-23 04:22:00,-2.0,-16.0,29.92,WNW,287,2.0,3.0,50,0.00,,,0.00,,2013-01-23 09:22:00,
2013-01-23 04:32:00,-3.0,-17.0,29.92,NNW,328,0.0,0.0,51,0.00,,,0.00,,2013-01-23 09:32:00,
2013-01-23 04:43:00,-3.0,-17.0,29.92,NNW,328,0.0,0.0,51,0.00,,,0.00,,2013-01-23 09:43:00,
2013-01-23 04:53:00,-3.0,-17.0,29.92,NNW,328,0.0,0.0,51,0.00,,,0.00,,2013-01-23 09:53:00,
2013-01-23 05:03:00,-3.0,-18.0,29.93,West,277,3.0,14.0,47,0.00,,,0.00,,2013-01-23 10:03:00,
2013-01-23 05:13:00,-3.0,-18.0,29.93,West,277,3.0,14.0,47,0.00,,,0.00,,2013-01-23 10:13:00,
2013-01-23 05:23:00,-3.0,-17.0,29.94,NE,51,0.0,1.0,50,0.00,,,0.00,,2013-01-23 10:23:00,
2013-01-23 05:33:00,-3.0,-17.0,29.94,NE,51,0.0,1.0,50,0.00,,,0.00,,2013-01-23 10:33:00,
2013-01-23 05:43:00,-3.0,-17.0,29.94,NE,51,0.0,1.0,50,0.00,,,0.00,,2013-01-23 10:43:00,
2013-01-23 05:53:00,-3.0,-19.0,29.94,West,272,4.0,8.0,46,0.00,,,0.00,,2013-01-23 10:53:00,
2013-01-23 06:02:00,-4.0,-19.0,29.94,WSW,254,5.0,12.0,47,0.00,,,0.00,,2013-01-23 11:02:00,
2013-01-23 06:12:00,-4.0,-19.0,29.94,WSW,254,5.0,12.0,47,0.00,,,0.00,,2013-01-23 11:12:00,
2013-01-23 06:23:00,-4.0,-19.0,29.94,WSW,254,5.0,12.0,47,0.00,,,0.00,,2013-01-23 11:23:00,
2013-01-23 06:33:00,-4.0,-20.0,29.96,WSW,240,5.0,11.0,45,0.00,,,0.00,,2013-01-23 11:33:00,
2013-01-23 06:43:00,-4.0,-20.0,29.96,WSW,240,5.0,11.0,45,0.00,,,0.00,,2013-01-23 11:43:00,
2013-01-23 06:53:00,-4.0,-20.0,29.96,West,265,0.0,5.0,45,0.00,,,0.00,,2013-01-23 11:53:00,
2013-01-23 07:03:00,-5.0,-20.0,29.96,WNW,295,0.0,5.0,46,0.00,,,0.00,,2013-01-23 12:03:00,
2013-01-23 07:13:00,-5.0,-20.0,29.96,WNW,295,0.0,5.0,46,0.00,,,0.00,,2013-01-23 12:13:00,
2013-01-23 07:22:00,-5.0,-20.0,29.96,NNW,346,0.0,5.0,46,0.00,,,0.00,,2013-01-23 12:22:00,
2013-01-23 07:33:00,-6.0,-21.0,29.96,WNW,294,0.0,0.0,46,0.00,,,0.00,,2013-01-23 12:33:00,
2013-01-23 07:43:00,-6.0,-21.0,29.96,WNW,294,0.0,0.0,46,0.00,,,0.00,,2013-01-23 12:43:00,
2013-01-23 07:53:00,-6.0,-21.0,29.96,WNW,294,0.0,0.0,46,0.00,,,0.00,,2013-01-23 12:53:00,
2013-01-23 08:04:00,-6.0,-23.0,29.97,WNW,291,0.0,5.0,43,0.00,,,0.00,,2013-01-23 13:04:00,
2013-01-23 08:13:00,-6.0,-23.0,29.97,WNW,291,0.0,5.0,43,0.00,,,0.00,,2013-01-23 13:13:00,
2013-01-23 08:23:00,-5.0,-22.0,29.97,West,261,3.0,3.0,43,0.00,,,0.00,,2013-01-23 13:23:00,
2013-01-23 08:30:00,-5.0,-23.0,29.97,WSW,258,6.0,10.0,40,0.00,,,0.00,,2013-01-23 13:30:00,
2013-01-23 08:33:00,-5.0,-22.0,29.97,West,261,3.0,3.0,43,0.00,,,0.00,,2013-01-23 13:33:00,
2013-01-23 08:43:00,-5.0,-22.0,29.97,West,261,3.0,3.0,43,0.00,,,0.00,,2013-01-23 13:43:00,
2013-01-23 08:53:00,-5.0,-23.0,29.97,WSW,258,6.0,10.0,40,0.00,,,0.00,,2013-01-23 13:53:00,
2013-01-23 09:03:00,-5.0,-23.0,29.97,WSW,258,6.0,10.0,40,0.00,,,0.00,,2013-01-23 14:03:00,
2013-01-23 09:12:00,-5.0,-23.0,29.97,WSW,258,6.0,10.0,40,0.00,,,0.00,,2013-01-23 14:12:00,
2013-01-23 09:23:00,-5.0,-23.0,29.97,WSW,258,6.0,10.0,40,0.00,,,0.00,,2013-01-23 14:23:00,
2013-01-23 10:33:00,-2.0,-22.0,29.98,WSW,257,6.0,18.0,37,0.00,,,0.00,,2013-01-23 15:33:00,
2013-01-23 10:43:00,-2.0,-22.0,29.98,WSW,257,6.0,18.0,37,0.00,,,0.00,,2013-01-23 15:43:00,
2013-01-23 10:53:00,-2.0,-22.0,29.98,WSW,257,6.0,18.0,37,0.00,,,0.00,,2013-01-23 15:53:00,
2013-01-23 11:03:00,-2.0,-22.0,29.98,WSW,257,6.0,18.0,37,0.00,,,0.00,,2013-01-23 16:03:00,
2013-01-23 11:12:00,-2.0,-22.0,29.98,WSW,257,6.0,18.0,37,0.00,,,0.00,,2013-01-23 16:12:00,
2013-01-23 11:21:00,-1.0,-21.0,29.95,SW,227,10.0,13.0,37,0.00,,,0.00,,2013-01-23 16:21:00,
2013-01-23 11:23:00,-2.0,-22.0,29.96,WNW,291,2.0,16.0,37,0.00,,,0.00,,2013-01-23 16:23:00,
2013-01-23 11:33:00,-2.0,-22.0,29.96,WNW,291,2.0,16.0,37,0.00,,,0.00,,2013-01-23 16:33:00,
2013-01-23 11:43:00,-2.0,-22.0,29.96,WNW,291,2.0,16.0,37,0.00,,,0.00,,2013-01-23 16:43:00,
2013-01-23 11:53:00,-1.0,-21.0,29.95,SW,227,10.0,13.0,37,0.00,,,0.00,,2013-01-23 16:53:00,
2013-01-23 12:03:00,-1.0,-21.0,29.95,SW,227,10.0,13.0,37,0.00,,,0.00,,2013-01-23 17:03:00,
2013-01-23 12:13:00,-1.0,-21.0,29.95,SW,227,10.0,13.0,37,0.00,,,0.00,,2013-01-23 17:13:00,
2013-01-23 12:53:00,0.0,-23.0,29.94,SW,230,6.0,16.0,32,0.00,,,0.00,,2013-01-23 17:53:00,
2013-01-23 13:04:00,0.0,-23.0,29.94,SW,230,6.0,16.0,32,0.00,,,0.00,,2013-01-23 18:04:00,
2013-01-23 13:12:00,0.0,-23.0,29.94,SW,230,6.0,16.0,32,0.00,,,0.00,,2013-01-23 18:12:00,
2013-01-23 13:23:00,0.0,-22.0,29.93,SW,232,7.0,19.0,33,0.00,,,0.00,,2013-01-23 18:23:00,
2013-01-23 13:33:00,0.0,-22.0,29.93,SW,232,7.0,19.0,33,0.00,,,0.00,,2013-01-23 18:33:00,
2013-01-23 13:43:00,1.0,-22.0,29.93,SSW,199,3.0,14.0,32,0.00,,,0.00,,2013-01-23 18:43:00,
2013-01-23 13:53:00,1.0,-22.0,29.93,SSW,199,3.0,14.0,32,0.00,,,0.00,,2013-01-23 18:53:00,
2013-01-23 14:03:00,0.0,-22.0,29.93,WSW,247,4.0,14.0,33,0.00,,,0.00,,2013-01-23 19:03:00,
2013-01-23 14:13:00,0.0,-22.0,29.93,WSW,247,4.0,14.0,33,0.00,,,0.00,,2013-01-23 19:13:00,
2013-01-23 14:23:00,0.0,-22.0,29.93,NW,323,6.0,20.0,33,0.00,,,0.00,,2013-01-23 19:23:00,
2013-01-23 14:33:00,0.0,-22.0,29.93,NW,323,6.0,20.0,33,0.00,,,0.00,,2013-01-23 19:33:00,
2013-01-23 14:43:00,0.0,-22.0,29.93,NW,323,6.0,20.0,33,0.00,,,0.00,,2013-01-23 19:43:00,
2013-01-23 14:53:00,1.0,-22.0,29.93,WSW,240,3.0,10.0,32,0.00,,,0.00,,2013-01-23 19:53:00,
2013-01-23 15:03:00,1.0,-22.0,29.93,WSW,244,7.0,12.0,31,0.00,,,0.00,,2013-01-23 20:03:00,
2013-01-23 15:13:00,1.0,-22.0,29.93,WSW,244,7.0,12.0,31,0.00,,,0.00,,2013-01-23 20:13:00,
2013-01-23 15:23:00,1.0,-22.0,29.93,WSW,244,7.0,12.0,31,0.00,,,0.00,,2013-01-23 20:23:00,
2013-01-23 15:33:00,1.0,-22.0,29.93,NW,311,7.0,16.0,31,0.00,,,0.00,,2013-01-23 20:33:00,
2013-01-23 15:43:00,1.0,-22.0,29.93,NW,311,7.0,16.0,31,0.00,,,0.00,,2013-01-23 20:43:00,
2013-01-23 15:54:00,1.0,-23.0,29.93,WSW,253,22.0,22.0,30,0.00,,,0.00,,2013-01-23 20:54:00,
2013-01-23 16:03:00,1.0,-23.0,29.93,WSW,253,22.0,22.0,30,0.00,,,0.00,,2013-01-23 21:03:00,
2013-01-23 16:12:00,1.0,-23.0,29.93,WSW,253,22.0,22.0,30,0.00,,,0.00,,2013-01-23 21:12:00,
2013-01-23 16:23:00,1.0,-23.0,29.93,WSW,253,22.0,22.0,30,0.00,,,0.00,,2013-01-23 21:23:00,
2013-01-23 16:33:00,0.0,-23.0,29.94,NNW,342,2.0,17.0,32,0.00,,,0.00,,2013-01-23 21:33:00,
2013-01-23 16:43:00,0.0,-23.0,29.94,NNW,342,2.0,17.0,32,0.00,,,0.00,,2013-01-23 21:43:00,
2013-01-23 16:53:00,0.0,-23.0,29.94,NNW,342,2.0,17.0,32,0.00,,,0.00,,2013-01-23 21:53:00,
2013-01-23 17:03:00,0.0,-22.0,29.93,NW,318,1.0,13.0,33,0.00,,,0.00,,2013-01-23 22:03:00,
2013-01-23 17:13:00,0.0,-22.0,29.93,NW,318,1.0,13.0,33,0.00,,,0.00,,2013-01-23 22:13:00,
2013-01-23 17:23:00,-1.0,-22.0,29.94,WSW,237,3.0,11.0,35,0.00,,,0.00,,2013-01-23 22:23:00,
2013-01-23 17:33:00,-1.0,-22.0,29.94,WSW,237,3.0,11.0,35,0.00,,,0.00,,2013-01-23 22:33:00,
2013-01-23 17:43:00,-1.0,-22.0,29.94,WSW,237,3.0,11.0,35,0.00,,,0.00,,2013-01-23 22:43:00,
2013-01-23 17:53:00,-1.0,-21.0,29.94,SW,227,5.0,19.0,36,0.00,,,0.00,,2013-01-23 22:53:00,
2013-01-23 18:03:00,-1.0,-21.0,29.95,NW,320,0.0,13.0,36,0.00,,,0.00,,2013-01-23 23:03:00,
2013-01-23 18:13:00,-1.0,-21.0,29.95,NW,320,0.0,13.0,36,0.00,,,0.00,,2013-01-23 23:13:00,
2013-01-23 18:23:00,-1.0,-21.0,29.95,NW,320,0.0,13.0,36,0.00,,,0.00,,2013-01-23 23:23:00,
2013-01-23 18:33:00,-2.0,-22.0,29.95,WSW,258,0.0,5.0,37,0.00,,,0.00,,2013-01-23 23:33:00,
2013-01-23 18:43:00,-2.0,-22.0,29.95,WSW,258,0.0,5.0,37,0.00,,,0.00,,2013-01-23 23:43:00,
2013-01-23 18:53:00,-2.0,-23.0,29.96,North,11,0.0,1.0,35,0.00,,,0.00,,2013-01-23 23:53:00,
2013-01-23 19:03:00,-2.0,-23.0,29.96,North,11,0.0,1.0,35,0.00,,,0.00,,2013-01-24 00:03:00,
2013-01-23 19:12:00,-2.0,-23.0,29.96,North,11,0.0,1.0,35,0.00,,,0.00,,2013-01-24 00:12:00,
2013-01-23 19:22:00,-2.0,-22.0,29.96,WNW,287,0.0,3.0,36,0.00,,,0.00,,2013-01-24 00:22:00,
2013-01-23 19:32:00,-2.0,-22.0,29.96,WNW,287,0.0,3.0,36,0.00,,,0.00,,2013-01-24 00:32:00,
2013-01-23 19:43:00,-2.0,-22.0,29.96,WNW,287,0.0,3.0,36,0.00,,,0.00,,2013-01-24 00:43:00,
2013-01-23 19:53:00,-3.0,-21.0,29.96,East,93,0.0,2.0,41,0.00,,,0.00,,2013-01-24 00:53:00,
2013-01-23 20:01:00,-4.0,-20.0,29.96,ESE,113,0.0,2.0,44,0.00,,,0.00,,2013-01-24 01:01:00,
2013-01-23 20:03:00,-3.0,-22.0,29.96,NW,315,0.0,0.0,39,0.00,,,0.00,,2013-01-24 01:03:00,
2013-01-23 20:12:00,-3.0,-22.0,29.96,NW,315,0.0,0.0,39,0.00,,,0.00,,2013-01-24 01:12:00,
2013-01-23 20:23:00,-4.0,-20.0,29.96,ESE,113,0.0,2.0,44,0.00,,,0.00,,2013-01-24 01:23:00,
2013-01-23 20:33:00,-4.0,-20.0,29.96,ESE,113,0.0,2.0,44,0.00,,,0.00,,2013-01-24 01:33:00,
2013-01-23 20:42:00,-4.0,-20.0,29.96,ESE,113,0.0,2.0,44,0.00,,,0.00,,2013-01-24 01:42:00,
2013-01-23 20:53:00,-4.0,-20.0,29.96,ESE,113,0.0,2.0,44,0.00,,,0.00,,2013-01-24 01:53:00,
2013-01-23 21:23:00,-4.0,-21.0,29.95,WNW,284,1.0,1.0,42,0.00,,,0.00,,2013-01-24 02:23:00,
2013-01-23 21:33:00,-4.0,-22.0,29.95,WSW,256,0.0,4.0,41,0.00,,,0.00,,2013-01-24 02:33:00,
2013-01-23 21:43:00,-4.0,-22.0,29.95,WSW,256,0.0,4.0,41,0.00,,,0.00,,2013-01-24 02:43:00,
2013-01-23 21:52:00,-4.0,-22.0,29.95,WSW,256,0.0,4.0,41,0.00,,,0.00,,2013-01-24 02:52:00,
2013-01-23 22:02:00,-3.0,-22.0,29.93,WNW,292,2.0,8.0,39,0.00,,,0.00,,2013-01-24 03:02:00,
2013-01-23 22:12:00,-3.0,-22.0,29.93,WNW,292,2.0,8.0,39,0.00,,,0.00,,2013-01-24 03:12:00,
2013-01-23 22:22:00,-3.0,-22.0,29.93,WNW,292,2.0,8.0,39,0.00,,,0.00,,2013-01-24 03:22:00,
2013-01-23 22:33:00,-3.0,-21.0,29.95,South,191,0.0,2.0,40,0.00,,,0.00,,2013-01-24 03:33:00,
2013-01-23 22:43:00,-3.0,-21.0,29.95,South,191,0.0,2.0,40,0.00,,,0.00,,2013-01-24 03:43:00,
2013-01-23 22:53:00,-4.0,-20.0,29.95,West,268,0.0,0.0,44,0.00,,,0.00,,2013-01-24 03:53:00,
2013-01-23 23:03:00,-4.0,-20.0,29.95,East,79,0.0,0.0,45,0.00,,,0.00,,2013-01-24 04:03:00,
2013-01-23 23:12:00,-4.0,-20.0,29.95,East,79,0.0,0.0,45,0.00,,,0.00,,2013-01-24 04:12:00,
2013-01-23 23:22:00,-4.0,-21.0,29.96,West,270,4.0,6.0,43,0.00,,,0.00,,2013-01-24 04:22:00,
2013-01-23 23:33:00,-4.0,-21.0,29.95,WNW,288,0.0,1.0,43,0.00,,,0.00,,2013-01-24 04:33:00,
2013-01-23 23:42:00,-4.0,-21.0,29.95,WNW,288,0.0,1.0,43,0.00,,,0.00,,2013-01-24 04:42:00,
2013-01-23 23:52:00,-5.0,-21.0,29.95,SW,234,0.0,3.0,44,0.00,,,0.00,,2013-01-24 04:52:00,